sensor_id;sensor_type;location;lat;lon;timestamp;P1;durP1;ratioP1;P2;durP2;ratioP2
13228;SDS011;6680;53.220;10.402;2023-11-19T00:02:21;6.77;;;4.60;;
13228;SDS011;6680;53.220;10.402;2023-11-19T00:04:49;6.50;;;4.80;;
13228;SDS011;6680;53.220;10.402;2023-11-19T00:07:16;5.27;;;4.63;;
13228;SDS011;6680;53.220;10.402;2023-11-19T00:09:42;6.83;;;5.00;;
13228;SDS011;6680;53.220;10.402;2023-11-19T00:12:09;4.33;;;3.83;;
13228;SDS011;6680;53.220;10.402;2023-11-19T00:14:36;5.03;;;3.57;;
13228;SDS011;6680;53.220;10.402;2023-11-19T00:17:03;4.70;;;3.80;;
13228;SDS011;6680;53.220;10.402;2023-11-19T00:19:30;5.17;;;3.67;;
13228;SDS011;6680;53.220;10.402;2023-11-19T00:21:58;6.03;;;4.00;;
13228;SDS011;6680;53.220;10.402;2023-11-19T00:24:27;7.07;;;4.23;;
13228;SDS011;6680;53.220;10.402;2023-11-19T00:26:55;4.70;;;3.60;;
13228;SDS011;6680;53.220;10.402;2023-11-19T00:29:22;3.40;;;3.10;;
13228;SDS011;6680;53.220;10.402;2023-11-19T00:31:49;4.30;;;3.27;;
13228;SDS011;6680;53.220;10.402;2023-11-19T00:34:16;4.13;;;3.10;;
13228;SDS011;6680;53.220;10.402;2023-11-19T00:36:46;6.03;;;3.40;;
13228;SDS011;6680;53.220;10.402;2023-11-19T00:39:15;4.60;;;3.77;;
13228;SDS011;6680;53.220;10.402;2023-11-19T00:41:42;4.30;;;3.90;;
13228;SDS011;6680;53.220;10.402;2023-11-19T00:44:11;4.20;;;3.57;;
13228;SDS011;6680;53.220;10.402;2023-11-19T00:46:37;5.03;;;3.93;;
13228;SDS011;6680;53.220;10.402;2023-11-19T00:49:04;6.73;;;3.57;;
13228;SDS011;6680;53.220;10.402;2023-11-19T00:51:31;4.83;;;3.73;;
13228;SDS011;6680;53.220;10.402;2023-11-19T00:53:58;4.23;;;3.50;;
13228;SDS011;6680;53.220;10.402;2023-11-19T00:56:27;4.53;;;3.13;;
13228;SDS011;6680;53.220;10.402;2023-11-19T00:58:54;6.03;;;3.30;;
13228;SDS011;6680;53.220;10.402;2023-11-19T01:01:21;5.23;;;3.73;;
13228;SDS011;6680;53.220;10.402;2023-11-19T01:03:48;3.77;;;3.33;;
13228;SDS011;6680;53.220;10.402;2023-11-19T01:06:15;4.13;;;3.20;;
13228;SDS011;6680;53.220;10.402;2023-11-19T01:08:52;4.50;;;3.60;;
13228;SDS011;6680;53.220;10.402;2023-11-19T01:11:20;4.90;;;4.10;;
13228;SDS011;6680;53.220;10.402;2023-11-19T01:13:48;4.50;;;4.03;;
13228;SDS011;6680;53.220;10.402;2023-11-19T01:16:15;5.43;;;4.07;;
13228;SDS011;6680;53.220;10.402;2023-11-19T01:18:42;4.33;;;3.87;;
13228;SDS011;6680;53.220;10.402;2023-11-19T01:21:09;6.53;;;4.10;;
13228;SDS011;6680;53.220;10.402;2023-11-19T01:23:36;6.13;;;3.90;;
13228;SDS011;6680;53.220;10.402;2023-11-19T01:26:03;4.00;;;3.50;;
13228;SDS011;6680;53.220;10.402;2023-11-19T01:28:31;3.83;;;3.50;;
13228;SDS011;6680;53.220;10.402;2023-11-19T01:30:59;3.57;;;3.27;;
13228;SDS011;6680;53.220;10.402;2023-11-19T01:33:26;4.73;;;3.33;;
13228;SDS011;6680;53.220;10.402;2023-11-19T01:35:53;3.57;;;3.27;;
13228;SDS011;6680;53.220;10.402;2023-11-19T01:38:20;4.33;;;3.80;;
13228;SDS011;6680;53.220;10.402;2023-11-19T01:40:47;4.50;;;2.93;;
13228;SDS011;6680;53.220;10.402;2023-11-19T01:46:00;5.93;;;3.60;;
13228;SDS011;6680;53.220;10.402;2023-11-19T01:48:28;3.50;;;2.90;;
13228;SDS011;6680;53.220;10.402;2023-11-19T01:50:55;3.70;;;3.30;;
13228;SDS011;6680;53.220;10.402;2023-11-19T01:53:23;5.30;;;3.47;;
13228;SDS011;6680;53.220;10.402;2023-11-19T01:55:50;4.17;;;3.50;;
13228;SDS011;6680;53.220;10.402;2023-11-19T01:58:18;7.33;;;3.57;;
13228;SDS011;6680;53.220;10.402;2023-11-19T02:00:45;5.00;;;3.97;;
13228;SDS011;6680;53.220;10.402;2023-11-19T02:03:14;4.87;;;3.40;;
13228;SDS011;6680;53.220;10.402;2023-11-19T02:05:41;5.00;;;3.50;;
13228;SDS011;6680;53.220;10.402;2023-11-19T02:08:08;3.17;;;2.80;;
13228;SDS011;6680;53.220;10.402;2023-11-19T02:10:35;3.70;;;3.37;;
13228;SDS011;6680;53.220;10.402;2023-11-19T02:13:02;4.17;;;3.53;;
13228;SDS011;6680;53.220;10.402;2023-11-19T02:15:31;3.30;;;3.00;;
13228;SDS011;6680;53.220;10.402;2023-11-19T02:20:48;3.10;;;2.70;;
13228;SDS011;6680;53.220;10.402;2023-11-19T02:23:15;3.30;;;3.00;;
13228;SDS011;6680;53.220;10.402;2023-11-19T02:25:43;3.43;;;3.13;;
13228;SDS011;6680;53.220;10.402;2023-11-19T02:28:16;3.70;;;3.07;;
13228;SDS011;6680;53.220;10.402;2023-11-19T02:30:43;3.60;;;2.83;;
13228;SDS011;6680;53.220;10.402;2023-11-19T02:33:10;3.20;;;2.70;;
13228;SDS011;6680;53.220;10.402;2023-11-19T02:35:38;2.90;;;2.70;;
13228;SDS011;6680;53.220;10.402;2023-11-19T02:38:05;2.93;;;2.63;;
13228;SDS011;6680;53.220;10.402;2023-11-19T02:40:33;2.83;;;2.53;;
13228;SDS011;6680;53.220;10.402;2023-11-19T02:42:59;3.20;;;2.90;;
13228;SDS011;6680;53.220;10.402;2023-11-19T02:45:28;3.57;;;3.20;;
13228;SDS011;6680;53.220;10.402;2023-11-19T02:47:56;2.70;;;2.50;;
13228;SDS011;6680;53.220;10.402;2023-11-19T02:50:23;2.53;;;2.23;;
13228;SDS011;6680;53.220;10.402;2023-11-19T02:52:51;2.57;;;2.13;;
13228;SDS011;6680;53.220;10.402;2023-11-19T02:55:21;3.27;;;2.60;;
13228;SDS011;6680;53.220;10.402;2023-11-19T02:57:49;2.33;;;2.13;;
13228;SDS011;6680;53.220;10.402;2023-11-19T03:00:18;2.33;;;2.13;;
13228;SDS011;6680;53.220;10.402;2023-11-19T03:02:50;1.70;;;1.60;;
13228;SDS011;6680;53.220;10.402;2023-11-19T03:05:24;2.33;;;2.10;;
13228;SDS011;6680;53.220;10.402;2023-11-19T03:07:55;2.00;;;1.90;;
13228;SDS011;6680;53.220;10.402;2023-11-19T03:10:22;1.53;;;1.43;;
13228;SDS011;6680;53.220;10.402;2023-11-19T03:12:49;2.10;;;1.90;;
13228;SDS011;6680;53.220;10.402;2023-11-19T03:15:16;1.73;;;1.63;;
13228;SDS011;6680;53.220;10.402;2023-11-19T03:17:43;1.50;;;1.40;;
13228;SDS011;6680;53.220;10.402;2023-11-19T03:20:12;1.57;;;1.40;;
13228;SDS011;6680;53.220;10.402;2023-11-19T03:22:40;1.50;;;1.40;;
13228;SDS011;6680;53.220;10.402;2023-11-19T03:25:08;1.63;;;1.53;;
13228;SDS011;6680;53.220;10.402;2023-11-19T03:27:35;1.70;;;1.60;;
13228;SDS011;6680;53.220;10.402;2023-11-19T03:30:02;1.53;;;1.43;;
13228;SDS011;6680;53.220;10.402;2023-11-19T03:32:30;1.70;;;1.60;;
13228;SDS011;6680;53.220;10.402;2023-11-19T03:34:58;1.77;;;1.67;;
13228;SDS011;6680;53.220;10.402;2023-11-19T03:37:27;1.57;;;1.47;;
13228;SDS011;6680;53.220;10.402;2023-11-19T03:39:54;1.43;;;1.33;;
13228;SDS011;6680;53.220;10.402;2023-11-19T03:42:24;1.53;;;1.43;;
13228;SDS011;6680;53.220;10.402;2023-11-19T03:44:51;1.60;;;1.50;;
13228;SDS011;6680;53.220;10.402;2023-11-19T03:47:18;1.70;;;1.60;;
13228;SDS011;6680;53.220;10.402;2023-11-19T03:49:47;1.40;;;1.30;;
13228;SDS011;6680;53.220;10.402;2023-11-19T03:52:14;1.97;;;1.87;;
13228;SDS011;6680;53.220;10.402;2023-11-19T03:54:43;2.40;;;1.50;;
13228;SDS011;6680;53.220;10.402;2023-11-19T03:57:10;1.70;;;1.60;;
13228;SDS011;6680;53.220;10.402;2023-11-19T03:59:37;1.50;;;1.40;;
13228;SDS011;6680;53.220;10.402;2023-11-19T04:02:04;1.70;;;1.60;;
13228;SDS011;6680;53.220;10.402;2023-11-19T04:04:31;1.07;;;1.07;;
13228;SDS011;6680;53.220;10.402;2023-11-19T04:06:58;1.63;;;1.53;;
13228;SDS011;6680;53.220;10.402;2023-11-19T04:09:26;1.43;;;1.33;;
13228;SDS011;6680;53.220;10.402;2023-11-19T04:11:54;1.70;;;1.60;;
13228;SDS011;6680;53.220;10.402;2023-11-19T04:14:21;1.70;;;1.60;;
13228;SDS011;6680;53.220;10.402;2023-11-19T04:16:47;1.90;;;1.80;;
13228;SDS011;6680;53.220;10.402;2023-11-19T04:19:14;2.00;;;1.90;;
13228;SDS011;6680;53.220;10.402;2023-11-19T04:21:41;1.70;;;1.60;;
13228;SDS011;6680;53.220;10.402;2023-11-19T04:24:08;1.70;;;1.60;;
13228;SDS011;6680;53.220;10.402;2023-11-19T04:26:39;2.17;;;1.73;;
13228;SDS011;6680;53.220;10.402;2023-11-19T04:29:09;1.80;;;1.70;;
13228;SDS011;6680;53.220;10.402;2023-11-19T04:31:37;1.70;;;1.60;;
13228;SDS011;6680;53.220;10.402;2023-11-19T04:34:04;2.17;;;2.00;;
13228;SDS011;6680;53.220;10.402;2023-11-19T04:36:31;2.60;;;2.40;;
13228;SDS011;6680;53.220;10.402;2023-11-19T04:38:58;1.93;;;1.73;;
13228;SDS011;6680;53.220;10.402;2023-11-19T04:41:25;2.33;;;2.13;;
13228;SDS011;6680;53.220;10.402;2023-11-19T04:43:53;2.40;;;2.20;;
13228;SDS011;6680;53.220;10.402;2023-11-19T04:46:21;2.57;;;2.37;;
13228;SDS011;6680;53.220;10.402;2023-11-19T04:48:49;3.57;;;3.10;;
13228;SDS011;6680;53.220;10.402;2023-11-19T04:51:16;3.60;;;3.30;;
13228;SDS011;6680;53.220;10.402;2023-11-19T04:53:43;2.67;;;2.47;;
13228;SDS011;6680;53.220;10.402;2023-11-19T04:56:10;5.33;;;3.47;;
13228;SDS011;6680;53.220;10.402;2023-11-19T04:58:38;3.37;;;3.07;;
13228;SDS011;6680;53.220;10.402;2023-11-19T05:01:05;4.47;;;3.90;;
13228;SDS011;6680;53.220;10.402;2023-11-19T05:03:34;4.20;;;3.40;;
13228;SDS011;6680;53.220;10.402;2023-11-19T05:06:01;6.63;;;3.90;;
13228;SDS011;6680;53.220;10.402;2023-11-19T05:08:28;4.50;;;3.80;;
13228;SDS011;6680;53.220;10.402;2023-11-19T05:10:55;4.83;;;4.03;;
13228;SDS011;6680;53.220;10.402;2023-11-19T05:13:22;4.67;;;4.13;;
13228;SDS011;6680;53.220;10.402;2023-11-19T05:15:49;6.37;;;4.30;;
13228;SDS011;6680;53.220;10.402;2023-11-19T05:18:16;5.33;;;4.50;;
13228;SDS011;6680;53.220;10.402;2023-11-19T05:20:44;6.73;;;4.17;;
13228;SDS011;6680;53.220;10.402;2023-11-19T05:23:11;6.87;;;4.40;;
13228;SDS011;6680;53.220;10.402;2023-11-19T05:25:38;7.80;;;4.83;;
13228;SDS011;6680;53.220;10.402;2023-11-19T05:28:05;5.77;;;4.80;;
13228;SDS011;6680;53.220;10.402;2023-11-19T05:30:32;7.20;;;4.73;;
13228;SDS011;6680;53.220;10.402;2023-11-19T05:32:58;7.37;;;5.57;;
13228;SDS011;6680;53.220;10.402;2023-11-19T05:35:25;7.07;;;5.00;;
13228;SDS011;6680;53.220;10.402;2023-11-19T05:37:54;7.37;;;4.90;;
13228;SDS011;6680;53.220;10.402;2023-11-19T05:40:21;6.20;;;4.60;;
13228;SDS011;6680;53.220;10.402;2023-11-19T05:42:48;9.67;;;6.00;;
13228;SDS011;6680;53.220;10.402;2023-11-19T05:45:15;5.77;;;4.90;;
13228;SDS011;6680;53.220;10.402;2023-11-19T05:47:41;9.93;;;4.70;;
13228;SDS011;6680;53.220;10.402;2023-11-19T05:50:09;7.87;;;5.53;;
13228;SDS011;6680;53.220;10.402;2023-11-19T05:52:36;6.50;;;5.23;;
13228;SDS011;6680;53.220;10.402;2023-11-19T05:55:05;6.87;;;5.30;;
13228;SDS011;6680;53.220;10.402;2023-11-19T05:57:35;5.20;;;4.70;;
13228;SDS011;6680;53.220;10.402;2023-11-19T06:00:02;9.63;;;5.67;;
13228;SDS011;6680;53.220;10.402;2023-11-19T06:02:32;6.30;;;5.30;;
13228;SDS011;6680;53.220;10.402;2023-11-19T06:04:59;6.13;;;5.27;;
13228;SDS011;6680;53.220;10.402;2023-11-19T06:07:26;7.90;;;6.27;;
13228;SDS011;6680;53.220;10.402;2023-11-19T06:09:53;8.33;;;5.30;;
13228;SDS011;6680;53.220;10.402;2023-11-19T06:12:21;7.90;;;5.93;;
13228;SDS011;6680;53.220;10.402;2023-11-19T06:14:48;7.63;;;5.27;;
13228;SDS011;6680;53.220;10.402;2023-11-19T06:17:15;8.60;;;5.67;;
13228;SDS011;6680;53.220;10.402;2023-11-19T06:19:42;8.83;;;5.73;;
13228;SDS011;6680;53.220;10.402;2023-11-19T06:22:08;8.07;;;5.27;;
13228;SDS011;6680;53.220;10.402;2023-11-19T06:24:35;8.30;;;5.53;;
13228;SDS011;6680;53.220;10.402;2023-11-19T06:27:02;11.00;;;6.00;;
13228;SDS011;6680;53.220;10.402;2023-11-19T06:29:31;9.97;;;6.20;;
13228;SDS011;6680;53.220;10.402;2023-11-19T06:31:57;12.57;;;7.30;;
13228;SDS011;6680;53.220;10.402;2023-11-19T06:34:25;10.10;;;5.97;;
13228;SDS011;6680;53.220;10.402;2023-11-19T06:36:51;7.93;;;5.27;;
13228;SDS011;6680;53.220;10.402;2023-11-19T06:39:18;16.03;;;7.57;;
13228;SDS011;6680;53.220;10.402;2023-11-19T06:41:45;9.80;;;6.43;;
13228;SDS011;6680;53.220;10.402;2023-11-19T06:44:12;11.40;;;6.93;;
13228;SDS011;6680;53.220;10.402;2023-11-19T06:46:41;11.80;;;6.27;;
13228;SDS011;6680;53.220;10.402;2023-11-19T06:49:07;15.20;;;7.20;;
13228;SDS011;6680;53.220;10.402;2023-11-19T06:51:34;17.13;;;7.40;;
13228;SDS011;6680;53.220;10.402;2023-11-19T06:54:01;16.63;;;6.90;;
13228;SDS011;6680;53.220;10.402;2023-11-19T06:56:28;14.20;;;7.00;;
13228;SDS011;6680;53.220;10.402;2023-11-19T06:58:54;13.10;;;7.40;;
13228;SDS011;6680;53.220;10.402;2023-11-19T07:01:21;11.80;;;6.97;;
13228;SDS011;6680;53.220;10.402;2023-11-19T07:03:49;12.07;;;6.70;;
13228;SDS011;6680;53.220;10.402;2023-11-19T07:06:16;15.17;;;7.17;;
13228;SDS011;6680;53.220;10.402;2023-11-19T07:08:43;14.77;;;7.00;;
13228;SDS011;6680;53.220;10.402;2023-11-19T07:11:10;18.83;;;7.47;;
13228;SDS011;6680;53.220;10.402;2023-11-19T07:13:38;19.10;;;6.97;;
13228;SDS011;6680;53.220;10.402;2023-11-19T07:16:06;14.23;;;6.53;;
13228;SDS011;6680;53.220;10.402;2023-11-19T07:18:35;18.63;;;7.03;;
13228;SDS011;6680;53.220;10.402;2023-11-19T07:21:05;11.63;;;6.73;;
13228;SDS011;6680;53.220;10.402;2023-11-19T07:23:35;15.13;;;6.70;;
13228;SDS011;6680;53.220;10.402;2023-11-19T07:26:04;20.07;;;7.37;;
13228;SDS011;6680;53.220;10.402;2023-11-19T07:28:33;13.97;;;6.67;;
13228;SDS011;6680;53.220;10.402;2023-11-19T07:30:59;19.37;;;7.50;;
13228;SDS011;6680;53.220;10.402;2023-11-19T07:33:27;13.00;;;7.27;;
13228;SDS011;6680;53.220;10.402;2023-11-19T07:35:54;17.90;;;7.47;;
13228;SDS011;6680;53.220;10.402;2023-11-19T07:38:23;19.27;;;6.87;;
13228;SDS011;6680;53.220;10.402;2023-11-19T07:40:50;11.60;;;6.20;;
13228;SDS011;6680;53.220;10.402;2023-11-19T07:43:17;19.23;;;7.13;;
13228;SDS011;6680;53.220;10.402;2023-11-19T07:45:43;12.00;;;5.70;;
13228;SDS011;6680;53.220;10.402;2023-11-19T07:48:11;14.27;;;5.87;;
13228;SDS011;6680;53.220;10.402;2023-11-19T07:50:38;18.53;;;6.90;;
13228;SDS011;6680;53.220;10.402;2023-11-19T07:53:06;12.23;;;5.60;;
13228;SDS011;6680;53.220;10.402;2023-11-19T07:55:35;8.87;;;4.33;;
13228;SDS011;6680;53.220;10.402;2023-11-19T07:58:02;8.40;;;4.67;;
13228;SDS011;6680;53.220;10.402;2023-11-19T08:00:28;10.10;;;4.60;;
13228;SDS011;6680;53.220;10.402;2023-11-19T08:02:55;14.50;;;4.93;;
13228;SDS011;6680;53.220;10.402;2023-11-19T08:05:22;15.93;;;4.50;;
13228;SDS011;6680;53.220;10.402;2023-11-19T08:07:49;7.07;;;4.47;;
13228;SDS011;6680;53.220;10.402;2023-11-19T08:10:17;9.00;;;4.07;;
13228;SDS011;6680;53.220;10.402;2023-11-19T08:12:45;9.67;;;4.30;;
13228;SDS011;6680;53.220;10.402;2023-11-19T08:15:12;12.43;;;4.87;;
13228;SDS011;6680;53.220;10.402;2023-11-19T08:17:39;9.00;;;3.73;;
13228;SDS011;6680;53.220;10.402;2023-11-19T08:20:06;13.00;;;4.23;;
13228;SDS011;6680;53.220;10.402;2023-11-19T08:22:35;10.43;;;3.83;;
13228;SDS011;6680;53.220;10.402;2023-11-19T08:25:02;15.37;;;3.37;;
13228;SDS011;6680;53.220;10.402;2023-11-19T08:27:29;13.13;;;4.60;;
13228;SDS011;6680;53.220;10.402;2023-11-19T08:29:58;11.83;;;4.20;;
13228;SDS011;6680;53.220;10.402;2023-11-19T08:32:24;10.17;;;4.57;;
13228;SDS011;6680;53.220;10.402;2023-11-19T08:34:51;11.50;;;4.87;;
13228;SDS011;6680;53.220;10.402;2023-11-19T08:37:18;12.73;;;4.60;;
13228;SDS011;6680;53.220;10.402;2023-11-19T08:39:47;14.83;;;4.63;;
13228;SDS011;6680;53.220;10.402;2023-11-19T08:42:14;14.43;;;4.50;;
13228;SDS011;6680;53.220;10.402;2023-11-19T08:44:41;14.10;;;4.10;;
13228;SDS011;6680;53.220;10.402;2023-11-19T08:47:10;11.13;;;3.80;;
13228;SDS011;6680;53.220;10.402;2023-11-19T08:49:38;13.53;;;4.03;;
13228;SDS011;6680;53.220;10.402;2023-11-19T08:52:05;13.80;;;4.97;;
13228;SDS011;6680;53.220;10.402;2023-11-19T08:54:35;9.13;;;4.93;;
13228;SDS011;6680;53.220;10.402;2023-11-19T08:57:01;20.63;;;4.77;;
13228;SDS011;6680;53.220;10.402;2023-11-19T08:59:29;15.07;;;4.93;;
13228;SDS011;6680;53.220;10.402;2023-11-19T09:01:55;15.80;;;4.43;;
13228;SDS011;6680;53.220;10.402;2023-11-19T09:04:24;9.73;;;4.47;;
13228;SDS011;6680;53.220;10.402;2023-11-19T09:06:50;7.93;;;3.87;;
13228;SDS011;6680;53.220;10.402;2023-11-19T09:09:17;12.70;;;3.63;;
13228;SDS011;6680;53.220;10.402;2023-11-19T09:11:44;10.77;;;4.17;;
13228;SDS011;6680;53.220;10.402;2023-11-19T09:14:11;13.80;;;4.77;;
13228;SDS011;6680;53.220;10.402;2023-11-19T09:16:38;10.37;;;4.03;;
13228;SDS011;6680;53.220;10.402;2023-11-19T09:19:04;10.00;;;3.40;;
13228;SDS011;6680;53.220;10.402;2023-11-19T09:21:32;15.47;;;3.57;;
13228;SDS011;6680;53.220;10.402;2023-11-19T09:24:03;18.07;;;4.10;;
13228;SDS011;6680;53.220;10.402;2023-11-19T09:26:32;11.90;;;3.57;;
13228;SDS011;6680;53.220;10.402;2023-11-19T09:28:59;11.53;;;3.67;;
13228;SDS011;6680;53.220;10.402;2023-11-19T09:31:26;16.70;;;3.87;;
13228;SDS011;6680;53.220;10.402;2023-11-19T09:33:53;12.73;;;4.43;;
13228;SDS011;6680;53.220;10.402;2023-11-19T09:36:20;14.50;;;4.40;;
13228;SDS011;6680;53.220;10.402;2023-11-19T09:38:48;18.70;;;4.30;;
13228;SDS011;6680;53.220;10.402;2023-11-19T09:41:14;13.40;;;4.20;;
13228;SDS011;6680;53.220;10.402;2023-11-19T09:43:44;11.43;;;4.03;;
13228;SDS011;6680;53.220;10.402;2023-11-19T09:46:12;17.20;;;4.37;;
13228;SDS011;6680;53.220;10.402;2023-11-19T09:48:41;9.33;;;4.57;;
13228;SDS011;6680;53.220;10.402;2023-11-19T09:51:09;13.00;;;4.13;;
13228;SDS011;6680;53.220;10.402;2023-11-19T09:53:37;13.73;;;4.27;;
13228;SDS011;6680;53.220;10.402;2023-11-19T09:56:06;13.40;;;4.87;;
13228;SDS011;6680;53.220;10.402;2023-11-19T09:58:34;14.90;;;4.67;;
13228;SDS011;6680;53.220;10.402;2023-11-19T10:01:01;24.50;;;4.67;;
13228;SDS011;6680;53.220;10.402;2023-11-19T10:03:32;15.87;;;5.03;;
13228;SDS011;6680;53.220;10.402;2023-11-19T10:06:03;16.93;;;3.87;;
13228;SDS011;6680;53.220;10.402;2023-11-19T10:08:30;9.60;;;4.10;;
13228;SDS011;6680;53.220;10.402;2023-11-19T10:10:57;15.57;;;4.60;;
13228;SDS011;6680;53.220;10.402;2023-11-19T10:13:27;12.57;;;4.17;;
13228;SDS011;6680;53.220;10.402;2023-11-19T10:15:55;10.87;;;4.30;;
13228;SDS011;6680;53.220;10.402;2023-11-19T10:18:23;12.53;;;4.20;;
13228;SDS011;6680;53.220;10.402;2023-11-19T10:20:51;10.67;;;3.63;;
13228;SDS011;6680;53.220;10.402;2023-11-19T10:23:20;11.03;;;4.43;;
13228;SDS011;6680;53.220;10.402;2023-11-19T10:25:47;14.60;;;4.63;;
13228;SDS011;6680;53.220;10.402;2023-11-19T10:28:14;12.07;;;4.00;;
13228;SDS011;6680;53.220;10.402;2023-11-19T10:30:43;14.60;;;4.83;;
13228;SDS011;6680;53.220;10.402;2023-11-19T10:33:10;13.40;;;4.27;;
13228;SDS011;6680;53.220;10.402;2023-11-19T10:35:50;12.47;;;4.00;;
13228;SDS011;6680;53.220;10.402;2023-11-19T10:38:18;10.30;;;3.90;;
13228;SDS011;6680;53.220;10.402;2023-11-19T10:40:45;15.73;;;4.10;;
13228;SDS011;6680;53.220;10.402;2023-11-19T10:43:12;10.37;;;3.40;;
13228;SDS011;6680;53.220;10.402;2023-11-19T10:45:39;10.00;;;4.07;;
13228;SDS011;6680;53.220;10.402;2023-11-19T10:48:08;9.57;;;2.90;;
13228;SDS011;6680;53.220;10.402;2023-11-19T10:50:35;12.87;;;3.80;;
13228;SDS011;6680;53.220;10.402;2023-11-19T10:53:03;15.80;;;3.67;;
13228;SDS011;6680;53.220;10.402;2023-11-19T10:55:30;18.60;;;4.70;;
13228;SDS011;6680;53.220;10.402;2023-11-19T10:58:00;14.40;;;4.20;;
13228;SDS011;6680;53.220;10.402;2023-11-19T11:00:28;16.50;;;4.07;;
13228;SDS011;6680;53.220;10.402;2023-11-19T11:02:59;12.27;;;4.57;;
13228;SDS011;6680;53.220;10.402;2023-11-19T11:05:30;13.90;;;3.90;;
13228;SDS011;6680;53.220;10.402;2023-11-19T11:08:00;13.17;;;3.57;;
13228;SDS011;6680;53.220;10.402;2023-11-19T11:10:28;13.33;;;4.00;;
13228;SDS011;6680;53.220;10.402;2023-11-19T11:13:01;15.37;;;3.83;;
13228;SDS011;6680;53.220;10.402;2023-11-19T11:15:30;15.20;;;4.27;;
13228;SDS011;6680;53.220;10.402;2023-11-19T11:17:59;13.77;;;3.60;;
13228;SDS011;6680;53.220;10.402;2023-11-19T11:20:27;14.63;;;4.13;;
13228;SDS011;6680;53.220;10.402;2023-11-19T11:23:02;13.97;;;4.77;;
13228;SDS011;6680;53.220;10.402;2023-11-19T11:25:54;23.70;;;5.73;;
13228;SDS011;6680;53.220;10.402;2023-11-19T11:28:33;15.77;;;4.27;;
13228;SDS011;6680;53.220;10.402;2023-11-19T11:31:15;12.37;;;4.93;;
13228;SDS011;6680;53.220;10.402;2023-11-19T11:33:59;16.53;;;3.97;;
13228;SDS011;6680;53.220;10.402;2023-11-19T11:36:43;12.90;;;3.93;;
13228;SDS011;6680;53.220;10.402;2023-11-19T11:39:20;18.90;;;4.47;;
13228;SDS011;6680;53.220;10.402;2023-11-19T11:41:57;14.13;;;4.10;;
13228;SDS011;6680;53.220;10.402;2023-11-19T11:44:59;12.47;;;4.07;;
13228;SDS011;6680;53.220;10.402;2023-11-19T11:50:28;9.50;;;3.53;;
13228;SDS011;6680;53.220;10.402;2023-11-19T11:55:57;10.67;;;3.43;;
13228;SDS011;6680;53.220;10.402;2023-11-19T11:58:26;12.87;;;3.67;;
13228;SDS011;6680;53.220;10.402;2023-11-19T12:00:58;13.87;;;3.77;;
13228;SDS011;6680;53.220;10.402;2023-11-19T12:03:27;9.83;;;3.17;;
13228;SDS011;6680;53.220;10.402;2023-11-19T12:05:55;12.77;;;4.23;;
13228;SDS011;6680;53.220;10.402;2023-11-19T12:08:26;14.17;;;3.50;;
13228;SDS011;6680;53.220;10.402;2023-11-19T12:10:55;15.07;;;4.10;;
13228;SDS011;6680;53.220;10.402;2023-11-19T12:13:24;11.93;;;3.20;;
13228;SDS011;6680;53.220;10.402;2023-11-19T12:16:07;9.27;;;2.80;;
13228;SDS011;6680;53.220;10.402;2023-11-19T12:18:35;9.90;;;3.90;;
13228;SDS011;6680;53.220;10.402;2023-11-19T12:21:02;8.43;;;3.30;;
13228;SDS011;6680;53.220;10.402;2023-11-19T12:23:32;7.70;;;3.40;;
13228;SDS011;6680;53.220;10.402;2023-11-19T12:25:59;12.90;;;3.30;;
13228;SDS011;6680;53.220;10.402;2023-11-19T12:28:26;9.73;;;4.40;;
13228;SDS011;6680;53.220;10.402;2023-11-19T12:30:53;14.20;;;3.63;;
13228;SDS011;6680;53.220;10.402;2023-11-19T12:33:35;10.83;;;3.13;;
13228;SDS011;6680;53.220;10.402;2023-11-19T12:36:03;12.07;;;3.60;;
13228;SDS011;6680;53.220;10.402;2023-11-19T12:38:32;12.87;;;3.37;;
13228;SDS011;6680;53.220;10.402;2023-11-19T12:41:02;10.33;;;3.27;;
13228;SDS011;6680;53.220;10.402;2023-11-19T12:43:29;11.13;;;3.50;;
13228;SDS011;6680;53.220;10.402;2023-11-19T12:45:56;9.93;;;3.90;;
13228;SDS011;6680;53.220;10.402;2023-11-19T12:48:23;12.53;;;3.73;;
13228;SDS011;6680;53.220;10.402;2023-11-19T12:50:50;8.00;;;3.13;;
13228;SDS011;6680;53.220;10.402;2023-11-19T12:53:18;7.00;;;3.33;;
13228;SDS011;6680;53.220;10.402;2023-11-19T12:55:46;8.90;;;3.80;;
13228;SDS011;6680;53.220;10.402;2023-11-19T12:58:27;11.30;;;4.60;;
13228;SDS011;6680;53.220;10.402;2023-11-19T13:00:58;10.97;;;3.57;;
13228;SDS011;6680;53.220;10.402;2023-11-19T13:03:29;13.83;;;4.97;;
13228;SDS011;6680;53.220;10.402;2023-11-19T13:06:04;10.53;;;3.50;;
13228;SDS011;6680;53.220;10.402;2023-11-19T13:08:36;17.37;;;3.60;;
13228;SDS011;6680;53.220;10.402;2023-11-19T13:11:05;10.67;;;3.47;;
13228;SDS011;6680;53.220;10.402;2023-11-19T13:16:22;11.33;;;3.70;;
13228;SDS011;6680;53.220;10.402;2023-11-19T13:18:49;14.40;;;3.43;;
13228;SDS011;6680;53.220;10.402;2023-11-19T13:21:16;12.20;;;3.40;;
13228;SDS011;6680;53.220;10.402;2023-11-19T13:23:43;10.90;;;4.40;;
13228;SDS011;6680;53.220;10.402;2023-11-19T13:26:11;12.50;;;3.27;;
13228;SDS011;6680;53.220;10.402;2023-11-19T13:28:38;10.50;;;4.07;;
13228;SDS011;6680;53.220;10.402;2023-11-19T13:31:05;9.70;;;3.03;;
13228;SDS011;6680;53.220;10.402;2023-11-19T13:33:32;14.47;;;4.17;;
13228;SDS011;6680;53.220;10.402;2023-11-19T13:35:59;15.67;;;4.47;;
13228;SDS011;6680;53.220;10.402;2023-11-19T13:38:30;17.70;;;4.63;;
13228;SDS011;6680;53.220;10.402;2023-11-19T13:40:58;10.57;;;4.03;;
13228;SDS011;6680;53.220;10.402;2023-11-19T13:43:27;11.07;;;3.80;;
13228;SDS011;6680;53.220;10.402;2023-11-19T13:45:54;11.40;;;3.90;;
13228;SDS011;6680;53.220;10.402;2023-11-19T13:48:20;15.40;;;4.77;;
13228;SDS011;6680;53.220;10.402;2023-11-19T13:50:47;15.23;;;4.10;;
13228;SDS011;6680;53.220;10.402;2023-11-19T13:53:14;12.20;;;3.73;;
13228;SDS011;6680;53.220;10.402;2023-11-19T13:55:41;13.10;;;4.30;;
13228;SDS011;6680;53.220;10.402;2023-11-19T13:58:08;13.37;;;4.23;;
13228;SDS011;6680;53.220;10.402;2023-11-19T14:00:36;15.10;;;4.43;;
13228;SDS011;6680;53.220;10.402;2023-11-19T14:03:03;11.70;;;4.07;;
13228;SDS011;6680;53.220;10.402;2023-11-19T14:05:31;11.83;;;3.40;;
13228;SDS011;6680;53.220;10.402;2023-11-19T14:07:58;12.53;;;3.73;;
13228;SDS011;6680;53.220;10.402;2023-11-19T14:10:26;10.37;;;4.17;;
13228;SDS011;6680;53.220;10.402;2023-11-19T14:12:53;10.40;;;4.00;;
13228;SDS011;6680;53.220;10.402;2023-11-19T14:15:20;11.63;;;3.57;;
13228;SDS011;6680;53.220;10.402;2023-11-19T14:17:48;12.67;;;4.20;;
13228;SDS011;6680;53.220;10.402;2023-11-19T14:20:15;14.03;;;4.13;;
13228;SDS011;6680;53.220;10.402;2023-11-19T14:22:43;19.57;;;4.63;;
13228;SDS011;6680;53.220;10.402;2023-11-19T14:25:13;11.23;;;4.30;;
13228;SDS011;6680;53.220;10.402;2023-11-19T14:27:40;16.73;;;3.90;;
13228;SDS011;6680;53.220;10.402;2023-11-19T14:30:08;16.70;;;3.87;;
13228;SDS011;6680;53.220;10.402;2023-11-19T14:32:37;12.00;;;3.80;;
13228;SDS011;6680;53.220;10.402;2023-11-19T14:35:06;8.40;;;3.97;;
13228;SDS011;6680;53.220;10.402;2023-11-19T14:37:33;9.97;;;3.53;;
13228;SDS011;6680;53.220;10.402;2023-11-19T14:40:00;10.73;;;3.37;;
13228;SDS011;6680;53.220;10.402;2023-11-19T14:42:29;13.27;;;4.00;;
13228;SDS011;6680;53.220;10.402;2023-11-19T14:44:56;7.47;;;3.60;;
13228;SDS011;6680;53.220;10.402;2023-11-19T14:47:23;6.93;;;3.70;;
13228;SDS011;6680;53.220;10.402;2023-11-19T14:49:50;10.30;;;3.77;;
13228;SDS011;6680;53.220;10.402;2023-11-19T14:52:19;13.30;;;4.00;;
13228;SDS011;6680;53.220;10.402;2023-11-19T14:54:45;9.17;;;3.27;;
13228;SDS011;6680;53.220;10.402;2023-11-19T14:57:12;12.03;;;3.97;;
13228;SDS011;6680;53.220;10.402;2023-11-19T14:59:39;9.80;;;2.90;;
13228;SDS011;6680;53.220;10.402;2023-11-19T15:02:06;8.57;;;2.87;;